sensor_id;sensor_type;location;lat;lon;timestamp;temperature;humidity
37528;DHT22;23372;52.050;4.810;2023-08-06T00:02:20;15.70;99.90
37528;DHT22;23372;52.050;4.810;2023-08-06T00:04:46;15.70;99.90
37528;DHT22;23372;52.050;4.810;2023-08-06T00:07:11;15.70;99.90
37528;DHT22;23372;52.050;4.810;2023-08-06T00:09:37;15.70;99.90
37528;DHT22;23372;52.050;4.810;2023-08-06T00:12:02;15.60;99.90
37528;DHT22;23372;52.050;4.810;2023-08-06T00:14:28;15.80;99.90
37528;DHT22;23372;52.050;4.810;2023-08-06T00:16:54;15.70;99.90
37528;DHT22;23372;52.050;4.810;2023-08-06T00:19:19;15.60;99.90
37528;DHT22;23372;52.050;4.810;2023-08-06T00:21:45;15.80;99.90
37528;DHT22;23372;52.050;4.810;2023-08-06T00:24:10;15.70;99.90
37528;DHT22;23372;52.050;4.810;2023-08-06T00:26:36;15.70;99.90
37528;DHT22;23372;52.050;4.810;2023-08-06T00:29:01;15.60;99.90
37528;DHT22;23372;52.050;4.810;2023-08-06T00:31:27;15.70;99.90
37528;DHT22;23372;52.050;4.810;2023-08-06T00:33:52;15.70;99.90
37528;DHT22;23372;52.050;4.810;2023-08-06T00:36:18;15.70;99.90
37528;DHT22;23372;52.050;4.810;2023-08-06T00:38:43;15.70;99.90
37528;DHT22;23372;52.050;4.810;2023-08-06T00:41:09;15.60;99.90
37528;DHT22;23372;52.050;4.810;2023-08-06T00:43:35;15.60;99.90
37528;DHT22;23372;52.050;4.810;2023-08-06T00:46:00;15.70;99.90
37528;DHT22;23372;52.050;4.810;2023-08-06T00:48:26;15.80;99.90
37528;DHT22;23372;52.050;4.810;2023-08-06T00:50:52;15.70;99.90
37528;DHT22;23372;52.050;4.810;2023-08-06T00:53:18;15.80;99.90
37528;DHT22;23372;52.050;4.810;2023-08-06T00:55:44;15.70;99.90
37528;DHT22;23372;52.050;4.810;2023-08-06T00:58:11;15.80;99.90
37528;DHT22;23372;52.050;4.810;2023-08-06T01:00:37;15.70;99.90
37528;DHT22;23372;52.050;4.810;2023-08-06T01:03:03;15.80;99.90
37528;DHT22;23372;52.050;4.810;2023-08-06T01:05:28;15.80;99.90
37528;DHT22;23372;52.050;4.810;2023-08-06T01:10:44;15.70;99.90
37528;DHT22;23372;52.050;4.810;2023-08-06T01:13:42;15.80;99.90
37528;DHT22;23372;52.050;4.810;2023-08-06T01:16:09;15.70;99.90
37528;DHT22;23372;52.050;4.810;2023-08-06T01:18:36;15.70;99.90
37528;DHT22;23372;52.050;4.810;2023-08-06T01:21:04;15.70;99.90
37528;DHT22;23372;52.050;4.810;2023-08-06T01:23:30;15.70;99.90
37528;DHT22;23372;52.050;4.810;2023-08-06T01:26:15;15.70;99.90
37528;DHT22;23372;52.050;4.810;2023-08-06T01:28:59;15.80;99.90
37528;DHT22;23372;52.050;4.810;2023-08-06T01:31:34;15.70;99.90
37528;DHT22;23372;52.050;4.810;2023-08-06T01:34:02;15.80;99.90
37528;DHT22;23372;52.050;4.810;2023-08-06T01:36:28;15.70;99.90
37528;DHT22;23372;52.050;4.810;2023-08-06T01:38:55;15.70;99.90
37528;DHT22;23372;52.050;4.810;2023-08-06T01:41:21;15.60;99.90
37528;DHT22;23372;52.050;4.810;2023-08-06T01:43:46;15.60;99.90
37528;DHT22;23372;52.050;4.810;2023-08-06T01:46:12;15.70;99.90
37528;DHT22;23372;52.050;4.810;2023-08-06T01:48:37;15.80;99.90
37528;DHT22;23372;52.050;4.810;2023-08-06T01:51:06;15.70;99.90
37528;DHT22;23372;52.050;4.810;2023-08-06T01:53:32;15.70;99.90
37528;DHT22;23372;52.050;4.810;2023-08-06T01:55:58;15.90;99.90
37528;DHT22;23372;52.050;4.810;2023-08-06T01:58:24;15.70;99.90
37528;DHT22;23372;52.050;4.810;2023-08-06T02:00:49;15.80;99.90
37528;DHT22;23372;52.050;4.810;2023-08-06T02:03:15;15.80;99.90
37528;DHT22;23372;52.050;4.810;2023-08-06T02:05:40;15.70;99.90
37528;DHT22;23372;52.050;4.810;2023-08-06T02:08:06;15.80;99.90
37528;DHT22;23372;52.050;4.810;2023-08-06T02:10:32;15.70;99.90
37528;DHT22;23372;52.050;4.810;2023-08-06T02:12:58;15.60;99.90
37528;DHT22;23372;52.050;4.810;2023-08-06T02:15:23;15.80;99.90
37528;DHT22;23372;52.050;4.810;2023-08-06T02:17:49;15.70;99.90
37528;DHT22;23372;52.050;4.810;2023-08-06T02:20:14;15.70;99.90
37528;DHT22;23372;52.050;4.810;2023-08-06T02:22:40;15.60;99.90
37528;DHT22;23372;52.050;4.810;2023-08-06T02:25:06;15.70;99.90
37528;DHT22;23372;52.050;4.810;2023-08-06T02:27:31;15.60;99.90
37528;DHT22;23372;52.050;4.810;2023-08-06T02:29:57;15.70;99.90
37528;DHT22;23372;52.050;4.810;2023-08-06T02:32:22;15.50;99.90
37528;DHT22;23372;52.050;4.810;2023-08-06T02:34:48;15.60;99.90
37528;DHT22;23372;52.050;4.810;2023-08-06T02:37:13;15.60;99.90
37528;DHT22;23372;52.050;4.810;2023-08-06T02:39:39;15.70;99.90
37528;DHT22;23372;52.050;4.810;2023-08-06T02:42:08;15.60;99.90
37528;DHT22;23372;52.050;4.810;2023-08-06T02:44:34;15.60;99.90
37528;DHT22;23372;52.050;4.810;2023-08-06T02:47:00;15.70;99.90
37528;DHT22;23372;52.050;4.810;2023-08-06T02:49:26;15.70;99.90
37528;DHT22;23372;52.050;4.810;2023-08-06T02:51:52;15.70;99.90
37528;DHT22;23372;52.050;4.810;2023-08-06T02:54:20;15.70;99.90
37528;DHT22;23372;52.050;4.810;2023-08-06T02:56:46;15.70;99.90
37528;DHT22;23372;52.050;4.810;2023-08-06T02:59:12;15.80;99.90
37528;DHT22;23372;52.050;4.810;2023-08-06T03:01:38;15.60;99.90
37528;DHT22;23372;52.050;4.810;2023-08-06T03:04:04;15.80;99.90
37528;DHT22;23372;52.050;4.810;2023-08-06T03:06:30;15.70;99.90
37528;DHT22;23372;52.050;4.810;2023-08-06T03:08:55;15.70;99.90
37528;DHT22;23372;52.050;4.810;2023-08-06T03:11:21;15.60;99.90
37528;DHT22;23372;52.050;4.810;2023-08-06T03:13:50;15.60;99.90
37528;DHT22;23372;52.050;4.810;2023-08-06T03:16:15;15.60;99.90
37528;DHT22;23372;52.050;4.810;2023-08-06T03:18:41;15.70;99.90
37528;DHT22;23372;52.050;4.810;2023-08-06T03:21:06;15.60;99.90
37528;DHT22;23372;52.050;4.810;2023-08-06T03:23:32;15.60;99.90
37528;DHT22;23372;52.050;4.810;2023-08-06T03:26:02;15.70;99.90
37528;DHT22;23372;52.050;4.810;2023-08-06T03:28:28;15.60;99.90
37528;DHT22;23372;52.050;4.810;2023-08-06T03:31:03;15.60;99.90
37528;DHT22;23372;52.050;4.810;2023-08-06T03:33:29;15.70;99.90
37528;DHT22;23372;52.050;4.810;2023-08-06T03:35:55;15.50;99.90
37528;DHT22;23372;52.050;4.810;2023-08-06T03:38:21;15.60;99.90
37528;DHT22;23372;52.050;4.810;2023-08-06T03:40:46;15.60;99.90
37528;DHT22;23372;52.050;4.810;2023-08-06T03:43:12;15.70;99.90
37528;DHT22;23372;52.050;4.810;2023-08-06T03:45:37;15.70;99.90
37528;DHT22;23372;52.050;4.810;2023-08-06T03:48:03;15.70;99.90
37528;DHT22;23372;52.050;4.810;2023-08-06T03:50:29;15.70;99.90
37528;DHT22;23372;52.050;4.810;2023-08-06T03:52:55;15.50;99.90
37528;DHT22;23372;52.050;4.810;2023-08-06T03:55:21;15.60;99.90
37528;DHT22;23372;52.050;4.810;2023-08-06T03:57:46;15.60;99.90
37528;DHT22;23372;52.050;4.810;2023-08-06T04:00:12;15.60;99.90
37528;DHT22;23372;52.050;4.810;2023-08-06T04:02:38;15.70;99.90
37528;DHT22;23372;52.050;4.810;2023-08-06T04:05:04;15.60;99.90
37528;DHT22;23372;52.050;4.810;2023-08-06T04:07:29;15.60;99.90
37528;DHT22;23372;52.050;4.810;2023-08-06T04:09:59;15.60;99.90
37528;DHT22;23372;52.050;4.810;2023-08-06T04:12:25;15.70;99.90
37528;DHT22;23372;52.050;4.810;2023-08-06T04:14:51;15.70;99.90
37528;DHT22;23372;52.050;4.810;2023-08-06T04:17:18;15.70;99.90
37528;DHT22;23372;52.050;4.810;2023-08-06T04:19:49;15.40;99.90
37528;DHT22;23372;52.050;4.810;2023-08-06T04:22:15;15.30;99.90
37528;DHT22;23372;52.050;4.810;2023-08-06T04:24:41;15.20;99.90
37528;DHT22;23372;52.050;4.810;2023-08-06T04:27:08;15.10;99.90
37528;DHT22;23372;52.050;4.810;2023-08-06T04:29:34;14.90;99.90
37528;DHT22;23372;52.050;4.810;2023-08-06T04:31:59;14.70;99.90
37528;DHT22;23372;52.050;4.810;2023-08-06T04:34:25;14.70;99.90
37528;DHT22;23372;52.050;4.810;2023-08-06T04:36:50;14.50;99.90
37528;DHT22;23372;52.050;4.810;2023-08-06T04:39:16;14.50;99.90
37528;DHT22;23372;52.050;4.810;2023-08-06T04:41:41;14.40;99.90
37528;DHT22;23372;52.050;4.810;2023-08-06T04:44:07;14.50;99.90
37528;DHT22;23372;52.050;4.810;2023-08-06T04:46:32;14.40;99.90
37528;DHT22;23372;52.050;4.810;2023-08-06T04:48:58;14.40;99.90
37528;DHT22;23372;52.050;4.810;2023-08-06T04:51:23;14.40;99.90
37528;DHT22;23372;52.050;4.810;2023-08-06T04:53:49;14.40;99.90
37528;DHT22;23372;52.050;4.810;2023-08-06T04:56:14;14.40;99.90
37528;DHT22;23372;52.050;4.810;2023-08-06T04:58:41;14.40;99.90
37528;DHT22;23372;52.050;4.810;2023-08-06T05:01:06;14.40;99.90
37528;DHT22;23372;52.050;4.810;2023-08-06T05:03:32;14.40;99.90
37528;DHT22;23372;52.050;4.810;2023-08-06T05:05:57;14.60;99.90
37528;DHT22;23372;52.050;4.810;2023-08-06T05:08:23;14.50;99.90
37528;DHT22;23372;52.050;4.810;2023-08-06T05:10:48;14.40;99.90
37528;DHT22;23372;52.050;4.810;2023-08-06T05:13:14;14.50;99.90
37528;DHT22;23372;52.050;4.810;2023-08-06T05:15:40;14.50;99.90
37528;DHT22;23372;52.050;4.810;2023-08-06T05:18:08;14.40;99.90
37528;DHT22;23372;52.050;4.810;2023-08-06T05:20:36;14.60;99.90
37528;DHT22;23372;52.050;4.810;2023-08-06T05:23:02;14.50;99.90
37528;DHT22;23372;52.050;4.810;2023-08-06T05:25:28;14.60;99.90
37528;DHT22;23372;52.050;4.810;2023-08-06T05:27:53;14.70;99.90
37528;DHT22;23372;52.050;4.810;2023-08-06T05:30:19;14.50;99.90
37528;DHT22;23372;52.050;4.810;2023-08-06T05:32:44;14.60;99.90
37528;DHT22;23372;52.050;4.810;2023-08-06T05:35:10;14.70;99.90
37528;DHT22;23372;52.050;4.810;2023-08-06T05:37:36;14.70;99.90
37528;DHT22;23372;52.050;4.810;2023-08-06T05:40:01;14.70;99.90
37528;DHT22;23372;52.050;4.810;2023-08-06T05:42:28;14.70;99.90
37528;DHT22;23372;52.050;4.810;2023-08-06T05:44:53;14.70;99.90
37528;DHT22;23372;52.050;4.810;2023-08-06T05:47:19;14.80;99.90
37528;DHT22;23372;52.050;4.810;2023-08-06T05:49:45;14.80;99.90
37528;DHT22;23372;52.050;4.810;2023-08-06T05:52:11;14.80;99.90
37528;DHT22;23372;52.050;4.810;2023-08-06T05:54:36;14.80;99.90
37528;DHT22;23372;52.050;4.810;2023-08-06T05:57:02;14.70;99.90
37528;DHT22;23372;52.050;4.810;2023-08-06T05:59:28;14.70;99.90
37528;DHT22;23372;52.050;4.810;2023-08-06T06:01:53;14.80;99.90
37528;DHT22;23372;52.050;4.810;2023-08-06T06:04:19;14.80;99.90
37528;DHT22;23372;52.050;4.810;2023-08-06T06:06:44;14.70;99.90
37528;DHT22;23372;52.050;4.810;2023-08-06T06:09:10;14.70;99.90
37528;DHT22;23372;52.050;4.810;2023-08-06T06:11:35;14.80;99.90
37528;DHT22;23372;52.050;4.810;2023-08-06T06:14:01;14.90;99.90
37528;DHT22;23372;52.050;4.810;2023-08-06T06:16:27;14.90;99.90
37528;DHT22;23372;52.050;4.810;2023-08-06T06:18:52;15.00;99.90
37528;DHT22;23372;52.050;4.810;2023-08-06T06:21:20;15.10;99.90
37528;DHT22;23372;52.050;4.810;2023-08-06T06:23:45;15.20;99.90
37528;DHT22;23372;52.050;4.810;2023-08-06T06:26:11;15.20;99.90
37528;DHT22;23372;52.050;4.810;2023-08-06T06:28:36;15.20;99.90
37528;DHT22;23372;52.050;4.810;2023-08-06T06:31:02;15.30;99.90
37528;DHT22;23372;52.050;4.810;2023-08-06T06:33:29;15.30;99.90
37528;DHT22;23372;52.050;4.810;2023-08-06T06:35:54;15.30;99.90
37528;DHT22;23372;52.050;4.810;2023-08-06T06:38:20;15.30;99.90
37528;DHT22;23372;52.050;4.810;2023-08-06T06:40:56;15.40;99.90
37528;DHT22;23372;52.050;4.810;2023-08-06T06:43:22;15.40;99.90
37528;DHT22;23372;52.050;4.810;2023-08-06T06:46:01;15.40;99.90
37528;DHT22;23372;52.050;4.810;2023-08-06T06:48:28;15.30;99.90
37528;DHT22;23372;52.050;4.810;2023-08-06T06:50:55;15.40;99.90
37528;DHT22;23372;52.050;4.810;2023-08-06T06:53:21;15.30;99.90
37528;DHT22;23372;52.050;4.810;2023-08-06T06:55:55;15.30;99.90
37528;DHT22;23372;52.050;4.810;2023-08-06T06:58:21;15.30;99.90
37528;DHT22;23372;52.050;4.810;2023-08-06T07:00:49;15.30;99.90
37528;DHT22;23372;52.050;4.810;2023-08-06T07:03:15;15.20;99.90
37528;DHT22;23372;52.050;4.810;2023-08-06T07:05:42;15.30;99.90
37528;DHT22;23372;52.050;4.810;2023-08-06T07:08:08;15.20;99.90
37528;DHT22;23372;52.050;4.810;2023-08-06T07:10:34;15.30;99.90
37528;DHT22;23372;52.050;4.810;2023-08-06T07:12:59;15.30;99.90
37528;DHT22;23372;52.050;4.810;2023-08-06T07:15:25;15.20;99.90
37528;DHT22;23372;52.050;4.810;2023-08-06T07:17:51;15.30;99.90
37528;DHT22;23372;52.050;4.810;2023-08-06T07:20:16;15.40;99.90
37528;DHT22;23372;52.050;4.810;2023-08-06T07:22:42;15.30;99.90
37528;DHT22;23372;52.050;4.810;2023-08-06T07:25:08;15.50;99.90
37528;DHT22;23372;52.050;4.810;2023-08-06T07:27:34;15.30;99.90
37528;DHT22;23372;52.050;4.810;2023-08-06T07:29:59;15.30;99.90
37528;DHT22;23372;52.050;4.810;2023-08-06T07:32:25;15.40;99.90
37528;DHT22;23372;52.050;4.810;2023-08-06T07:34:51;15.40;99.90
37528;DHT22;23372;52.050;4.810;2023-08-06T07:37:21;15.40;99.90
37528;DHT22;23372;52.050;4.810;2023-08-06T07:39:47;15.50;99.90
37528;DHT22;23372;52.050;4.810;2023-08-06T07:42:13;15.60;99.90
37528;DHT22;23372;52.050;4.810;2023-08-06T07:44:38;15.50;99.90
37528;DHT22;23372;52.050;4.810;2023-08-06T07:47:04;15.60;99.90
37528;DHT22;23372;52.050;4.810;2023-08-06T07:49:30;15.70;99.90
37528;DHT22;23372;52.050;4.810;2023-08-06T07:51:55;15.70;99.90
37528;DHT22;23372;52.050;4.810;2023-08-06T07:54:21;15.70;99.90
37528;DHT22;23372;52.050;4.810;2023-08-06T07:56:47;15.80;99.90
37528;DHT22;23372;52.050;4.810;2023-08-06T07:59:13;15.80;99.90
37528;DHT22;23372;52.050;4.810;2023-08-06T08:01:38;16.00;99.90
37528;DHT22;23372;52.050;4.810;2023-08-06T08:04:04;16.00;99.90
37528;DHT22;23372;52.050;4.810;2023-08-06T08:06:30;15.80;99.90
37528;DHT22;23372;52.050;4.810;2023-08-06T08:08:56;15.90;99.90
37528;DHT22;23372;52.050;4.810;2023-08-06T08:11:21;15.80;99.90
37528;DHT22;23372;52.050;4.810;2023-08-06T08:13:47;15.90;99.90
37528;DHT22;23372;52.050;4.810;2023-08-06T08:16:12;16.00;99.90
37528;DHT22;23372;52.050;4.810;2023-08-06T08:18:38;16.10;99.90
37528;DHT22;23372;52.050;4.810;2023-08-06T08:21:04;16.20;99.90
37528;DHT22;23372;52.050;4.810;2023-08-06T08:23:29;16.10;99.90
37528;DHT22;23372;52.050;4.810;2023-08-06T08:25:56;16.00;99.90
37528;DHT22;23372;52.050;4.810;2023-08-06T08:28:22;16.10;99.90
37528;DHT22;23372;52.050;4.810;2023-08-06T08:30:47;16.00;99.90
37528;DHT22;23372;52.050;4.810;2023-08-06T08:33:13;16.10;99.90
37528;DHT22;23372;52.050;4.810;2023-08-06T08:35:39;16.10;99.90
37528;DHT22;23372;52.050;4.810;2023-08-06T08:38:04;16.10;99.90
37528;DHT22;23372;52.050;4.810;2023-08-06T08:40:32;15.90;99.90
37528;DHT22;23372;52.050;4.810;2023-08-06T08:43:02;16.00;99.90
37528;DHT22;23372;52.050;4.810;2023-08-06T08:45:29;16.00;99.90
37528;DHT22;23372;52.050;4.810;2023-08-06T08:47:55;16.00;99.90
37528;DHT22;23372;52.050;4.810;2023-08-06T08:50:21;15.90;99.90
37528;DHT22;23372;52.050;4.810;2023-08-06T08:52:47;16.00;99.90
37528;DHT22;23372;52.050;4.810;2023-08-06T08:55:15;16.20;99.90
37528;DHT22;23372;52.050;4.810;2023-08-06T08:57:42;16.20;99.90
37528;DHT22;23372;52.050;4.810;2023-08-06T09:00:08;16.40;99.90
37528;DHT22;23372;52.050;4.810;2023-08-06T09:02:33;16.30;99.90
37528;DHT22;23372;52.050;4.810;2023-08-06T09:05:03;16.10;99.90
37528;DHT22;23372;52.050;4.810;2023-08-06T09:07:37;16.30;99.90
37528;DHT22;23372;52.050;4.810;2023-08-06T09:10:07;16.40;99.90
37528;DHT22;23372;52.050;4.810;2023-08-06T09:12:35;16.50;99.90
37528;DHT22;23372;52.050;4.810;2023-08-06T09:15:01;16.50;99.90
37528;DHT22;23372;52.050;4.810;2023-08-06T09:17:28;16.60;99.90
37528;DHT22;23372;52.050;4.810;2023-08-06T09:19:54;16.80;99.90
37528;DHT22;23372;52.050;4.810;2023-08-06T09:22:20;16.90;99.90
37528;DHT22;23372;52.050;4.810;2023-08-06T09:24:46;17.00;99.90
37528;DHT22;23372;52.050;4.810;2023-08-06T09:27:12;17.20;99.90
37528;DHT22;23372;52.050;4.810;2023-08-06T09:29:44;17.40;99.90
37528;DHT22;23372;52.050;4.810;2023-08-06T09:32:14;17.50;99.90
37528;DHT22;23372;52.050;4.810;2023-08-06T09:34:41;17.50;99.90
37528;DHT22;23372;52.050;4.810;2023-08-06T09:37:09;17.40;99.90
37528;DHT22;23372;52.050;4.810;2023-08-06T09:39:35;17.30;99.90
37528;DHT22;23372;52.050;4.810;2023-08-06T09:42:02;17.30;99.90
37528;DHT22;23372;52.050;4.810;2023-08-06T09:44:30;17.30;99.90
37528;DHT22;23372;52.050;4.810;2023-08-06T09:47:03;17.30;99.90
37528;DHT22;23372;52.050;4.810;2023-08-06T09:51:58;17.30;99.90
37528;DHT22;23372;52.050;4.810;2023-08-06T09:54:28;17.30;99.90
37528;DHT22;23372;52.050;4.810;2023-08-06T09:56:56;17.30;99.90
37528;DHT22;23372;52.050;4.810;2023-08-06T09:59:23;17.10;99.90
37528;DHT22;23372;52.050;4.810;2023-08-06T10:01:49;17.10;99.90
37528;DHT22;23372;52.050;4.810;2023-08-06T10:04:15;17.00;99.90
37528;DHT22;23372;52.050;4.810;2023-08-06T10:06:47;17.10;99.90
37528;DHT22;23372;52.050;4.810;2023-08-06T10:09:16;17.10;99.90
37528;DHT22;23372;52.050;4.810;2023-08-06T10:11:42;17.00;99.90
37528;DHT22;23372;52.050;4.810;2023-08-06T10:14:14;17.10;99.90
37528;DHT22;23372;52.050;4.810;2023-08-06T10:16:42;17.20;99.90
37528;DHT22;23372;52.050;4.810;2023-08-06T10:19:09;17.10;99.90
37528;DHT22;23372;52.050;4.810;2023-08-06T10:21:35;17.30;99.90
37528;DHT22;23372;52.050;4.810;2023-08-06T10:24:00;17.30;99.90
37528;DHT22;23372;52.050;4.810;2023-08-06T10:26:28;17.50;99.90
37528;DHT22;23372;52.050;4.810;2023-08-06T10:28:54;17.70;99.90
37528;DHT22;23372;52.050;4.810;2023-08-06T10:31:51;17.80;99.90
37528;DHT22;23372;52.050;4.810;2023-08-06T10:34:06;17.80;99.90
37528;DHT22;23372;52.050;4.810;2023-08-06T10:36:32;17.60;99.90
37528;DHT22;23372;52.050;4.810;2023-08-06T10:38:58;17.70;99.90
37528;DHT22;23372;52.050;4.810;2023-08-06T10:41:30;17.90;99.90
37528;DHT22;23372;52.050;4.810;2023-08-06T10:44:06;18.00;99.90
37528;DHT22;23372;52.050;4.810;2023-08-06T10:46:33;18.10;99.90
37528;DHT22;23372;52.050;4.810;2023-08-06T10:48:59;18.10;99.90
37528;DHT22;23372;52.050;4.810;2023-08-06T10:51:25;18.00;99.90
37528;DHT22;23372;52.050;4.810;2023-08-06T10:53:51;17.70;99.90
37528;DHT22;23372;52.050;4.810;2023-08-06T10:56:18;17.60;99.90
37528;DHT22;23372;52.050;4.810;2023-08-06T10:58:45;17.50;99.90
37528;DHT22;23372;52.050;4.810;2023-08-06T11:01:11;17.40;99.90
37528;DHT22;23372;52.050;4.810;2023-08-06T11:03:38;17.30;99.90
37528;DHT22;23372;52.050;4.810;2023-08-06T11:06:06;17.40;99.90
37528;DHT22;23372;52.050;4.810;2023-08-06T11:08:37;17.30;99.90
37528;DHT22;23372;52.050;4.810;2023-08-06T11:11:13;17.30;99.90
37528;DHT22;23372;52.050;4.810;2023-08-06T11:13:43;17.60;99.90
37528;DHT22;23372;52.050;4.810;2023-08-06T11:16:12;17.70;99.90
37528;DHT22;23372;52.050;4.810;2023-08-06T11:18:39;17.80;99.90
37528;DHT22;23372;52.050;4.810;2023-08-06T11:21:05;17.90;99.90
37528;DHT22;23372;52.050;4.810;2023-08-06T11:23:30;18.00;99.90
37528;DHT22;23372;52.050;4.810;2023-08-06T11:25:57;18.20;99.90
37528;DHT22;23372;52.050;4.810;2023-08-06T11:28:23;18.30;99.90
37528;DHT22;23372;52.050;4.810;2023-08-06T11:30:49;18.40;99.90
37528;DHT22;23372;52.050;4.810;2023-08-06T11:33:20;18.60;99.90
37528;DHT22;23372;52.050;4.810;2023-08-06T11:35:48;18.70;99.90
37528;DHT22;23372;52.050;4.810;2023-08-06T11:38:14;18.90;99.90
37528;DHT22;23372;52.050;4.810;2023-08-06T11:40:39;19.00;99.90
37528;DHT22;23372;52.050;4.810;2023-08-06T11:43:09;19.40;99.90
37528;DHT22;23372;52.050;4.810;2023-08-06T11:45:37;19.70;99.90
37528;DHT22;23372;52.050;4.810;2023-08-06T11:48:03;19.80;99.90
37528;DHT22;23372;52.050;4.810;2023-08-06T11:50:29;19.70;99.90
37528;DHT22;23372;52.050;4.810;2023-08-06T11:53:00;19.80;99.90
37528;DHT22;23372;52.050;4.810;2023-08-06T11:55:27;19.90;99.90
37528;DHT22;23372;52.050;4.810;2023-08-06T11:57:54;20.10;99.90
37528;DHT22;23372;52.050;4.810;2023-08-06T12:00:22;20.10;99.90
37528;DHT22;23372;52.050;4.810;2023-08-06T12:02:48;20.20;99.90
37528;DHT22;23372;52.050;4.810;2023-08-06T12:05:17;20.10;99.90
37528;DHT22;23372;52.050;4.810;2023-08-06T12:07:47;20.00;99.90
37528;DHT22;23372;52.050;4.810;2023-08-06T12:10:14;20.00;99.90
37528;DHT22;23372;52.050;4.810;2023-08-06T12:12:40;20.10;99.90
37528;DHT22;23372;52.050;4.810;2023-08-06T12:15:07;20.00;99.90
37528;DHT22;23372;52.050;4.810;2023-08-06T12:17:33;19.80;99.90
37528;DHT22;23372;52.050;4.810;2023-08-06T12:19:59;19.70;99.90
37528;DHT22;23372;52.050;4.810;2023-08-06T12:22:25;19.80;99.90
37528;DHT22;23372;52.050;4.810;2023-08-06T12:24:50;20.00;99.90
37528;DHT22;23372;52.050;4.810;2023-08-06T12:27:16;19.90;99.90
37528;DHT22;23372;52.050;4.810;2023-08-06T12:29:47;19.90;99.90
37528;DHT22;23372;52.050;4.810;2023-08-06T12:32:13;19.80;99.90
37528;DHT22;23372;52.050;4.810;2023-08-06T12:34:39;19.80;99.90
37528;DHT22;23372;52.050;4.810;2023-08-06T12:37:06;19.80;99.90
37528;DHT22;23372;52.050;4.810;2023-08-06T12:39:32;19.90;99.90
37528;DHT22;23372;52.050;4.810;2023-08-06T12:41:59;20.00;99.90
37528;DHT22;23372;52.050;4.810;2023-08-06T12:44:25;20.50;99.90
37528;DHT22;23372;52.050;4.810;2023-08-06T12:46:51;21.00;99.90
37528;DHT22;23372;52.050;4.810;2023-08-06T12:49:17;21.20;99.90
37528;DHT22;23372;52.050;4.810;2023-08-06T12:51:43;21.00;99.90
37528;DHT22;23372;52.050;4.810;2023-08-06T12:54:08;21.30;99.90
37528;DHT22;23372;52.050;4.810;2023-08-06T12:56:34;21.80;99.90
37528;DHT22;23372;52.050;4.810;2023-08-06T12:59:00;21.30;99.90
37528;DHT22;23372;52.050;4.810;2023-08-06T13:01:25;20.80;99.90
37528;DHT22;23372;52.050;4.810;2023-08-06T13:03:51;20.60;99.90
37528;DHT22;23372;52.050;4.810;2023-08-06T13:06:16;20.30;99.90
37528;DHT22;23372;52.050;4.810;2023-08-06T13:08:42;20.20;99.90
37528;DHT22;23372;52.050;4.810;2023-08-06T13:11:07;20.10;99.90
37528;DHT22;23372;52.050;4.810;2023-08-06T13:13:33;20.40;99.90
37528;DHT22;23372;52.050;4.810;2023-08-06T13:15:59;20.40;99.90
37528;DHT22;23372;52.050;4.810;2023-08-06T13:18:24;20.20;99.90
37528;DHT22;23372;52.050;4.810;2023-08-06T13:20:53;19.90;99.90
37528;DHT22;23372;52.050;4.810;2023-08-06T13:23:19;19.60;99.90
37528;DHT22;23372;52.050;4.810;2023-08-06T13:25:45;19.40;99.90
37528;DHT22;23372;52.050;4.810;2023-08-06T13:28:10;19.30;99.90
37528;DHT22;23372;52.050;4.810;2023-08-06T13:30:36;19.20;99.90
37528;DHT22;23372;52.050;4.810;2023-08-06T13:33:10;19.20;99.90
37528;DHT22;23372;52.050;4.810;2023-08-06T13:35:36;19.20;99.90
37528;DHT22;23372;52.050;4.810;2023-08-06T13:38:02;18.90;99.90
37528;DHT22;23372;52.050;4.810;2023-08-06T13:40:29;18.60;99.90
37528;DHT22;23372;52.050;4.810;2023-08-06T13:42:55;18.10;99.90
37528;DHT22;23372;52.050;4.810;2023-08-06T13:45:21;17.70;99.90
37528;DHT22;23372;52.050;4.810;2023-08-06T13:47:46;17.50;99.90
37528;DHT22;23372;52.050;4.810;2023-08-06T13:50:12;17.40;99.90
37528;DHT22;23372;52.050;4.810;2023-08-06T13:52:38;17.40;99.90
37528;DHT22;23372;52.050;4.810;2023-08-06T13:55:05;17.30;99.90
37528;DHT22;23372;52.050;4.810;2023-08-06T13:57:31;17.40;99.90
37528;DHT22;23372;52.050;4.810;2023-08-06T13:59:56;17.50;99.90
37528;DHT22;23372;52.050;4.810;2023-08-06T14:02:22;17.50;99.90
37528;DHT22;23372;52.050;4.810;2023-08-06T14:04:48;17.70;99.90
37528;DHT22;23372;52.050;4.810;2023-08-06T14:07:13;17.70;99.90
37528;DHT22;23372;52.050;4.810;2023-08-06T14:09:39;17.60;99.90
37528;DHT22;23372;52.050;4.810;2023-08-06T14:12:05;17.80;99.90
37528;DHT22;23372;52.050;4.810;2023-08-06T14:14:31;17.50;99.90
37528;DHT22;23372;52.050;4.810;2023-08-06T14:16:57;17.40;99.90
37528;DHT22;23372;52.050;4.810;2023-08-06T14:19:23;17.20;99.90
37528;DHT22;23372;52.050;4.810;2023-08-06T14:21:49;17.10;99.90
37528;DHT22;23372;52.050;4.810;2023-08-06T14:24:14;17.00;99.90
37528;DHT22;23372;52.050;4.810;2023-08-06T14:26:40;16.90;99.90
37528;DHT22;23372;52.050;4.810;2023-08-06T14:29:06;16.90;99.90
37528;DHT22;23372;52.050;4.810;2023-08-06T14:31:31;17.00;99.90
37528;DHT22;23372;52.050;4.810;2023-08-06T14:33:57;17.10;99.90
37528;DHT22;23372;52.050;4.810;2023-08-06T14:36:23;17.10;99.90
37528;DHT22;23372;52.050;4.810;2023-08-06T14:38:48;16.80;99.90
37528;DHT22;23372;52.050;4.810;2023-08-06T14:41:14;16.70;99.90
37528;DHT22;23372;52.050;4.810;2023-08-06T14:43:39;16.80;99.90
37528;DHT22;23372;52.050;4.810;2023-08-06T14:46:05;16.90;99.90
37528;DHT22;23372;52.050;4.810;2023-08-06T14:48:31;17.10;99.90
37528;DHT22;23372;52.050;4.810;2023-08-06T14:50:56;17.20;99.90
37528;DHT22;23372;52.050;4.810;2023-08-06T14:53:22;17.20;99.90
37528;DHT22;23372;52.050;4.810;2023-08-06T14:55:48;17.30;99.90
37528;DHT22;23372;52.050;4.810;2023-08-06T14:58:14;17.20;99.90
37528;DHT22;23372;52.050;4.810;2023-08-06T15:00:39;17.10;99.90
37528;DHT22;23372;52.050;4.810;2023-08-06T15:03:05;16.90;99.90
37528;DHT22;23372;52.050;4.810;2023-08-06T15:05:31;16.80;99.90
37528;DHT22;23372;52.050;4.810;2023-08-06T15:07:56;16.70;99.90
37528;DHT22;23372;52.050;4.810;2023-08-06T15:10:22;16.50;99.90
37528;DHT22;23372;52.050;4.810;2023-08-06T15:12:48;16.40;99.90
37528;DHT22;23372;52.050;4.810;2023-08-06T15:15:13;16.30;99.90
37528;DHT22;23372;52.050;4.810;2023-08-06T15:17:39;16.30;99.90
37528;DHT22;23372;52.050;4.810;2023-08-06T15:20:05;16.30;99.90
37528;DHT22;23372;52.050;4.810;2023-08-06T15:22:31;16.10;99.90
37528;DHT22;23372;52.050;4.810;2023-08-06T15:24:59;15.90;99.90
37528;DHT22;23372;52.050;4.810;2023-08-06T15:27:25;15.70;99.90
37528;DHT22;23372;52.050;4.810;2023-08-06T15:29:50;15.70;99.90
37528;DHT22;23372;52.050;4.810;2023-08-06T15:32:16;15.70;99.90